createdAt,value
2018-08-03T00:00:07.068Z,26.89
2018-08-03T00:01:07.101Z,26.87
2018-08-03T00:02:07.153Z,26.76
2018-08-03T00:03:07.160Z,26.81
2018-08-03T00:04:07.184Z,26.79
2018-08-03T00:05:07.245Z,26.80
2018-08-03T00:06:07.305Z,26.77
2018-08-03T00:07:07.268Z,26.84
2018-08-03T00:08:07.294Z,26.98
2018-08-03T00:09:07.315Z,27.02
2018-08-03T00:10:07.341Z,26.84
2018-08-03T00:11:07.381Z,26.74
2018-08-03T00:12:07.408Z,26.86
2018-08-03T00:13:07.534Z,26.77
2018-08-03T00:14:07.460Z,26.72
2018-08-03T00:15:07.485Z,26.81
2018-08-03T00:16:07.516Z,26.77
2018-08-03T00:17:07.534Z,26.79
2018-08-03T00:18:07.577Z,26.68
2018-08-03T00:19:07.593Z,26.80
2018-08-03T00:20:07.624Z,26.62
2018-08-03T00:21:07.696Z,26.83
2018-08-03T00:23:07.760Z,26.87
2018-08-03T00:24:07.841Z,26.77
2018-08-03T00:25:07.758Z,26.74
2018-08-03T00:26:07.790Z,26.57
2018-08-03T00:27:07.816Z,26.64
2018-08-03T00:28:07.840Z,26.59
2018-08-03T00:29:07.869Z,26.80
2018-08-03T00:30:07.900Z,26.77
2018-08-03T00:31:07.930Z,26.58
2018-08-03T00:32:07.959Z,26.72
2018-08-03T00:33:07.994Z,26.72
2018-08-03T00:34:08.000Z,26.77
2018-08-03T00:35:08.067Z,26.72
2018-08-03T00:36:08.069Z,26.64
2018-08-03T00:37:08.104Z,26.59
2018-08-03T00:38:08.117Z,26.64
2018-08-03T00:39:08.148Z,26.73
2018-08-03T00:40:08.190Z,26.57
2018-08-03T00:41:08.199Z,26.59
2018-08-03T00:42:08.225Z,26.61
2018-08-03T00:43:08.255Z,26.72
2018-08-03T00:44:08.291Z,26.69
2018-08-03T00:45:08.311Z,26.62
2018-08-03T00:46:08.385Z,26.61
2018-08-03T00:47:08.366Z,26.50
2018-08-03T00:48:08.422Z,26.59
2018-08-03T00:49:08.425Z,26.58
2018-08-03T00:50:08.459Z,26.61
2018-08-03T00:51:08.480Z,26.72
2018-08-03T00:52:08.507Z,26.67
2018-08-03T00:53:08.532Z,26.61
2018-08-03T00:54:08.560Z,26.62
2018-08-03T00:55:08.578Z,26.58
2018-08-03T00:56:08.623Z,26.55
2018-08-03T00:57:08.642Z,26.46
2018-08-03T00:58:08.669Z,26.52
2018-08-03T00:59:08.723Z,26.43
2018-08-03T01:00:08.749Z,26.57
2018-08-03T01:01:08.757Z,26.55
2018-08-03T01:02:08.780Z,26.50
2018-08-03T01:03:08.808Z,26.49
2018-08-03T01:05:08.863Z,26.40
2018-08-03T01:07:08.922Z,26.47
2018-08-03T01:08:08.935Z,26.50
2018-08-03T01:09:08.969Z,26.46
2018-08-03T01:11:09.026Z,26.46
2018-08-03T01:12:09.055Z,26.47
2018-08-03T01:13:09.079Z,26.47
2018-08-03T01:14:09.109Z,26.49
2018-08-03T01:15:09.127Z,26.39
2018-08-03T01:16:09.161Z,26.43
2018-08-03T01:17:09.208Z,26.43
2018-08-03T01:18:09.212Z,26.42
2018-08-03T01:19:09.242Z,26.32
2018-08-03T01:20:09.274Z,26.27
2018-08-03T01:21:09.302Z,26.15
2018-08-03T01:22:09.332Z,26.09
2018-08-03T01:23:09.362Z,26.25
2018-08-03T01:24:09.394Z,26.20
2018-08-03T01:25:09.412Z,26.20
2018-08-03T01:26:09.459Z,26.11
2018-08-03T01:27:09.467Z,26.20
2018-08-03T01:28:09.637Z,26.09
2018-08-03T01:29:09.522Z,26.22
2018-08-03T01:30:09.537Z,26.29
2018-08-03T01:31:09.591Z,26.21
2018-08-03T01:32:09.602Z,26.15
2018-08-03T01:33:09.630Z,26.25
2018-08-03T01:34:09.687Z,26.22
2018-08-03T01:35:09.680Z,26.15
2018-08-03T01:36:09.711Z,26.02
2018-08-03T01:37:09.734Z,26.17
2018-08-03T01:38:09.765Z,26.20
2018-08-03T01:39:09.794Z,26.17
2018-08-03T01:40:09.841Z,26.18
2018-08-03T01:41:09.843Z,26.17
2018-08-03T01:42:09.882Z,26.18
2018-08-03T01:43:09.900Z,26.17
2018-08-03T01:44:09.931Z,26.22
2018-08-03T01:45:09.955Z,26.20
2018-08-03T01:47:10.012Z,26.20
2018-08-03T01:48:10.034Z,26.18
2018-08-03T01:49:10.068Z,26.20
2018-08-03T01:50:10.091Z,26.04
2018-08-03T01:51:10.121Z,26.12
2018-08-03T01:52:10.146Z,26.18
2018-08-03T01:53:10.178Z,26.24
2018-08-03T01:54:10.202Z,26.09
2018-08-03T01:55:10.225Z,26.22
2018-08-03T01:56:10.244Z,26.15
2018-08-03T01:57:10.280Z,26.08
2018-08-03T01:58:10.305Z,26.05
2018-08-03T01:59:10.370Z,26.01
2018-08-03T02:00:10.361Z,26.04
2018-08-03T02:01:10.396Z,26.18
2018-08-03T02:02:10.423Z,26.15
2018-08-03T02:03:10.526Z,26.17
2018-08-03T02:04:10.468Z,26.21
2018-08-03T02:05:10.519Z,26.04
2018-08-03T02:06:10.532Z,26.11
2018-08-03T02:07:10.557Z,26.18
2018-08-03T02:08:10.573Z,26.02
2018-08-03T02:09:10.602Z,25.98
2018-08-03T02:10:10.629Z,25.83
2018-08-03T02:11:10.660Z,25.91
2018-08-03T02:12:10.688Z,25.99
2018-08-03T02:13:10.709Z,25.98
2018-08-03T02:14:10.750Z,25.77
2018-08-03T02:15:10.767Z,25.94
2018-08-03T02:16:10.795Z,26.04
2018-08-03T02:18:10.841Z,26.02
2018-08-03T02:19:10.876Z,25.91
2018-08-03T02:20:10.898Z,26.04
2018-08-03T02:21:10.930Z,26.01
2018-08-03T02:22:10.952Z,25.99
2018-08-03T02:23:10.991Z,25.93
2018-08-03T02:24:11.016Z,25.89
2018-08-03T02:25:11.040Z,25.93
2018-08-03T02:26:11.069Z,26.02
2018-08-03T02:27:11.096Z,26.01
2018-08-03T02:28:11.119Z,26.05
2018-08-03T02:29:11.146Z,26.08
2018-08-03T02:30:11.176Z,26.04
2018-08-03T02:31:11.200Z,25.99
2018-08-03T02:32:11.231Z,26.04
2018-08-03T02:33:11.255Z,26.08
2018-08-03T02:34:11.380Z,25.99
2018-08-03T02:35:11.311Z,25.89
2018-08-03T02:36:11.353Z,25.90
2018-08-03T02:37:11.371Z,26.01
2018-08-03T02:38:11.393Z,26.02
2018-08-03T02:39:11.416Z,26.12
2018-08-03T02:40:11.464Z,25.99
2018-08-03T02:41:11.468Z,25.98
2018-08-03T02:43:11.531Z,26.01
2018-08-03T02:44:11.554Z,25.99
2018-08-03T02:45:11.667Z,25.87
2018-08-03T02:46:11.599Z,25.94
2018-08-03T02:47:11.641Z,25.84
2018-08-03T02:48:11.673Z,25.90
2018-08-03T02:49:11.689Z,25.83
2018-08-03T02:50:11.713Z,25.93
2018-08-03T02:51:11.747Z,25.99
2018-08-03T02:53:11.796Z,25.77
2018-08-03T02:54:11.826Z,25.77
2018-08-03T02:55:11.851Z,25.72
2018-08-03T02:56:11.956Z,25.90
2018-08-03T02:57:11.904Z,25.72
2018-08-03T02:58:11.932Z,25.77
2018-08-03T03:00:11.981Z,25.86
2018-08-03T03:01:12.017Z,25.93
2018-08-03T03:02:12.039Z,25.94
2018-08-03T03:03:12.074Z,25.74
2018-08-03T03:04:12.097Z,25.71
2018-08-03T03:05:12.124Z,25.57
2018-08-03T03:06:12.166Z,25.47
2018-08-03T03:07:12.225Z,25.65
2018-08-03T03:08:12.200Z,25.56
2018-08-03T03:09:12.228Z,25.62
2018-08-03T03:10:12.261Z,25.64
2018-08-03T03:11:12.280Z,25.71
2018-08-03T03:12:12.302Z,25.64
2018-08-03T03:13:12.328Z,25.72
2018-08-03T03:14:13.205Z,25.68
2018-08-03T03:15:12.392Z,25.59
2018-08-03T03:16:12.425Z,25.53
2018-08-03T03:17:12.443Z,25.54
2018-08-03T03:18:12.478Z,25.54
2018-08-03T03:19:12.492Z,25.52
2018-08-03T03:20:12.533Z,25.34
2018-08-03T03:21:12.554Z,25.54
2018-08-03T03:22:12.577Z,25.54
2018-08-03T03:23:12.601Z,25.47
2018-08-03T03:24:12.627Z,25.57
2018-08-03T03:25:12.652Z,25.65
2018-08-03T03:26:12.680Z,25.62
2018-08-03T03:27:33.724Z,25.56
2018-08-03T03:28:12.757Z,25.57
2018-08-03T03:29:12.764Z,25.67
2018-08-03T03:30:12.792Z,25.56
2018-08-03T03:31:12.824Z,25.50
2018-08-03T03:32:12.843Z,25.37
2018-08-03T03:33:12.872Z,25.49
2018-08-03T03:34:12.895Z,25.54
2018-08-03T03:35:12.930Z,25.46
2018-08-03T03:36:12.953Z,25.32
2018-08-03T03:37:12.980Z,25.22
2018-08-03T03:38:13.031Z,25.47
2018-08-03T03:39:13.045Z,25.32
2018-08-03T03:40:13.059Z,25.34
2018-08-03T03:41:13.078Z,25.31
2018-08-03T03:42:13.109Z,25.19
2018-08-03T03:43:13.144Z,25.24
2018-08-03T03:44:13.179Z,25.32
2018-08-03T03:45:13.202Z,25.37
2018-08-03T03:46:13.213Z,25.42
2018-08-03T03:47:13.251Z,25.38
2018-08-03T03:48:13.272Z,25.19
2018-08-03T03:50:13.326Z,25.44
2018-08-03T03:51:13.354Z,25.35
2018-08-03T03:52:13.371Z,25.30
2018-08-03T03:53:13.408Z,25.37
2018-08-03T03:54:13.431Z,25.34
2018-08-03T03:55:13.458Z,25.43
2018-08-03T03:56:13.484Z,25.53
2018-08-03T03:57:13.515Z,25.57
2018-08-03T03:58:13.536Z,25.53
2018-08-03T03:59:13.593Z,25.39
2018-08-03T04:00:13.592Z,25.37
2018-08-03T04:01:13.626Z,25.34
2018-08-03T04:02:13.636Z,25.32
2018-08-03T04:03:13.672Z,25.19
2018-08-03T04:05:13.724Z,25.25
2018-08-03T04:06:13.748Z,25.37
2018-08-03T04:07:13.782Z,25.42
2018-08-03T04:08:13.806Z,25.28
2018-08-03T04:09:13.840Z,25.35
2018-08-03T04:10:13.858Z,25.38
2018-08-03T04:11:13.884Z,25.34
2018-08-03T04:12:13.941Z,25.32
2018-08-03T04:13:13.945Z,25.32
2018-08-03T04:14:13.963Z,25.42
2018-08-03T04:15:13.989Z,25.30
2018-08-03T04:16:14.023Z,25.37
2018-08-03T04:17:14.041Z,25.32
2018-08-03T04:18:14.068Z,25.30
2018-08-03T04:19:14.110Z,25.22
2018-08-03T04:20:14.124Z,25.35
2018-08-03T04:21:14.150Z,25.22
2018-08-03T04:22:14.174Z,25.25
2018-08-03T04:23:14.202Z,25.25
2018-08-03T04:24:14.231Z,25.24
2018-08-03T04:25:14.250Z,25.50
2018-08-03T04:26:14.282Z,25.43
2018-08-03T04:27:14.303Z,25.34
2018-08-03T04:28:14.327Z,25.22
2018-08-03T04:29:14.368Z,25.24
2018-08-03T04:30:14.384Z,25.16
2018-08-03T04:31:14.703Z,25.24
2018-08-03T04:32:14.440Z,25.25
2018-08-03T04:33:14.476Z,25.07
2018-08-03T04:34:14.495Z,25.24
2018-08-03T04:35:14.519Z,25.31
2018-08-03T04:36:14.549Z,25.34
2018-08-03T04:37:14.577Z,25.16
2018-08-03T04:38:14.627Z,25.28
2018-08-03T04:39:14.631Z,25.24
2018-08-03T04:40:14.659Z,25.22
2018-08-03T04:41:14.687Z,25.25
2018-08-03T04:42:14.773Z,25.25
2018-08-03T04:43:14.732Z,25.25
2018-08-03T04:44:14.758Z,25.12
2018-08-03T04:45:14.788Z,25.12
2018-08-03T04:46:14.818Z,25.16
2018-08-03T04:47:14.835Z,25.24
2018-08-03T04:48:14.866Z,25.32
2018-08-03T04:49:14.897Z,25.12
2018-08-03T04:50:14.923Z,25.16
2018-08-03T04:51:14.943Z,25.20
2018-08-03T04:52:14.974Z,25.20
2018-08-03T04:53:15.001Z,25.22
2018-08-03T04:54:15.020Z,25.32
2018-08-03T04:55:15.052Z,25.32
2018-08-03T04:56:15.068Z,25.31
2018-08-03T04:57:15.105Z,25.24
2018-08-03T04:58:15.130Z,25.27
2018-08-03T04:59:15.154Z,25.20
2018-08-03T05:00:15.183Z,25.25
2018-08-03T05:01:15.207Z,25.17
2018-08-03T05:02:15.232Z,25.25
2018-08-03T05:03:15.258Z,25.24
2018-08-03T05:04:15.300Z,25.22
2018-08-03T05:05:15.324Z,25.34
2018-08-03T05:06:15.338Z,25.37
2018-08-03T05:07:15.369Z,25.37
2018-08-03T05:09:15.435Z,25.32
2018-08-03T05:10:15.451Z,25.43
2018-08-03T05:11:15.475Z,25.34
2018-08-03T05:12:15.507Z,25.38
2018-08-03T05:13:15.542Z,25.25
2018-08-03T05:14:15.565Z,25.25
2018-08-03T05:15:15.581Z,25.24
2018-08-03T05:16:15.616Z,25.24
2018-08-03T05:17:15.634Z,25.25
2018-08-03T05:18:15.654Z,25.22
2018-08-03T05:19:15.686Z,25.20
2018-08-03T05:21:15.747Z,25.34
2018-08-03T05:22:15.765Z,25.35
2018-08-03T05:23:15.793Z,25.22
2018-08-03T05:24:15.828Z,25.22
2018-08-03T05:25:15.844Z,25.32
2018-08-03T05:26:15.862Z,25.52
2018-08-03T05:27:15.891Z,25.52
2018-08-03T05:28:15.945Z,25.57
2018-08-03T05:29:15.953Z,25.56
2018-08-03T05:30:15.986Z,25.52
2018-08-03T05:31:16.009Z,25.56
2018-08-03T05:32:18.016Z,25.57
2018-08-03T05:33:16.060Z,25.65
2018-08-03T05:34:16.088Z,25.46
2018-08-03T05:35:16.147Z,25.32
2018-08-03T05:36:16.192Z,25.34
2018-08-03T05:37:16.175Z,25.35
2018-08-03T05:38:16.189Z,25.31
2018-08-03T05:39:16.217Z,25.37
2018-08-03T05:40:16.249Z,25.43
2018-08-03T05:41:16.332Z,25.37
2018-08-03T05:42:16.294Z,25.35
2018-08-03T05:43:16.323Z,25.44
2018-08-03T05:44:16.349Z,25.46
2018-08-03T05:45:16.383Z,25.44
2018-08-03T05:46:16.403Z,25.32
2018-08-03T05:47:16.428Z,25.43
2018-08-03T05:48:16.457Z,25.54
2018-08-03T05:49:16.488Z,25.64
2018-08-03T05:50:16.594Z,25.69
2018-08-03T05:51:16.534Z,25.68
2018-08-03T05:52:16.613Z,25.71
2018-08-03T05:53:16.595Z,25.71
2018-08-03T05:54:16.623Z,25.64
2018-08-03T05:55:16.645Z,25.67
2018-08-03T05:56:16.669Z,25.67
2018-08-03T05:57:16.736Z,25.69
2018-08-03T05:58:16.730Z,25.72
2018-08-03T05:59:16.752Z,25.72
2018-08-03T06:00:16.777Z,25.80
2018-08-03T06:01:16.807Z,25.89
2018-08-03T06:02:16.844Z,25.89
2018-08-03T06:03:16.867Z,25.82
2018-08-03T06:04:16.887Z,25.80
2018-08-03T06:05:16.923Z,25.91
2018-08-03T06:06:16.930Z,25.97
2018-08-03T06:07:16.966Z,26.04
2018-08-03T06:08:17.099Z,25.98
2018-08-03T06:09:17.030Z,26.02
2018-08-03T06:10:17.049Z,25.91
2018-08-03T06:11:17.080Z,25.93
2018-08-03T06:12:17.112Z,25.89
2018-08-03T06:13:17.122Z,25.91
2018-08-03T06:14:17.166Z,25.98
2018-08-03T06:15:17.180Z,25.93
2018-08-03T06:16:17.216Z,25.91
2018-08-03T06:17:17.228Z,25.97
2018-08-03T06:18:17.260Z,25.99
2018-08-03T06:19:17.288Z,25.99
2018-08-03T06:20:17.316Z,25.98
2018-08-03T06:21:17.343Z,25.93
2018-08-03T06:22:17.367Z,25.99
2018-08-03T06:23:17.411Z,26.09
2018-08-03T06:24:17.429Z,26.08
2018-08-03T06:25:17.454Z,26.17
2018-08-03T06:26:17.482Z,26.15
2018-08-03T06:27:17.505Z,26.21
2018-08-03T06:28:17.536Z,26.17
2018-08-03T06:29:17.559Z,26.18
2018-08-03T06:30:17.588Z,26.06
2018-08-03T06:31:17.618Z,26.15
2018-08-03T06:32:17.642Z,26.04
2018-08-03T06:33:17.663Z,26.15
2018-08-03T06:34:17.688Z,26.15
2018-08-03T06:35:17.740Z,26.17
2018-08-03T06:36:17.752Z,26.20
2018-08-03T06:37:17.779Z,26.22
2018-08-03T06:38:17.900Z,26.31
2018-08-03T06:39:17.830Z,26.36
2018-08-03T06:40:17.868Z,26.28
2018-08-03T06:41:17.890Z,26.31
2018-08-03T06:42:17.914Z,26.25
2018-08-03T06:43:17.938Z,26.36
2018-08-03T06:44:17.966Z,26.35
2018-08-03T06:45:17.998Z,26.40
2018-08-03T06:46:18.028Z,26.28
2018-08-03T06:47:18.051Z,26.37
2018-08-03T06:48:18.119Z,26.36
2018-08-03T06:49:18.117Z,26.40
2018-08-03T06:50:18.123Z,26.49
2018-08-03T06:51:18.161Z,26.46
2018-08-03T06:52:18.183Z,26.46
2018-08-03T06:53:18.215Z,26.40
2018-08-03T06:54:18.241Z,26.54
2018-08-03T06:55:18.271Z,26.52
2018-08-03T06:56:18.301Z,26.52
2018-08-03T06:57:18.323Z,26.49
2018-08-03T06:58:18.370Z,26.57
2018-08-03T06:59:18.388Z,26.54
2018-08-03T07:00:18.443Z,26.46
2018-08-03T07:02:18.468Z,26.57
2018-08-03T07:03:18.491Z,26.50
2018-08-03T07:04:18.528Z,26.55
2018-08-03T07:05:18.562Z,26.62
2018-08-03T07:06:18.571Z,26.61
2018-08-03T07:07:18.597Z,26.58
2018-08-03T07:08:18.625Z,26.58
2018-08-03T07:09:18.661Z,26.68
2018-08-03T07:10:18.690Z,26.67
2018-08-03T07:11:18.705Z,26.73
2018-08-03T07:12:18.736Z,26.77
2018-08-03T07:13:18.771Z,26.74
2018-08-03T07:14:18.786Z,26.74
2018-08-03T07:15:18.824Z,26.80
2018-08-03T07:16:18.842Z,26.84
2018-08-03T07:17:18.874Z,26.80
2018-08-03T07:18:18.906Z,26.83
2018-08-03T07:19:18.931Z,26.86
2018-08-03T07:20:19.077Z,26.87
2018-08-03T07:21:18.982Z,26.83
2018-08-03T07:22:19.016Z,26.87
2018-08-03T07:23:19.039Z,26.91
2018-08-03T07:24:19.068Z,26.89
2018-08-03T07:25:19.095Z,26.89
2018-08-03T07:26:19.129Z,26.91
2018-08-03T07:27:19.151Z,26.92
2018-08-03T07:28:19.184Z,26.94
2018-08-03T07:29:19.236Z,26.89
2018-08-03T07:30:19.240Z,26.98
2018-08-03T07:31:19.260Z,26.95
2018-08-03T07:32:19.294Z,26.87
2018-08-03T07:33:19.332Z,26.92
2018-08-03T07:34:19.343Z,26.92
2018-08-03T07:35:19.380Z,26.87
2018-08-03T07:36:19.400Z,26.95
2018-08-03T07:37:19.498Z,26.99
2018-08-03T07:38:19.453Z,26.99
2018-08-03T07:39:19.502Z,27.04
2018-08-03T07:40:19.510Z,26.99
2018-08-03T07:41:19.553Z,27.01
2018-08-03T07:42:19.572Z,26.99
2018-08-03T07:43:19.724Z,27.06
2018-08-03T07:44:19.692Z,27.16
2018-08-03T07:45:19.688Z,27.04
2018-08-03T07:46:19.676Z,27.17
2018-08-03T07:47:19.711Z,27.14
2018-08-03T07:50:19.793Z,27.17
2018-08-03T07:51:19.832Z,27.17
2018-08-03T07:53:19.882Z,27.19
2018-08-03T07:54:19.908Z,27.17
2018-08-03T07:55:19.944Z,27.21
2018-08-03T07:56:19.966Z,27.24
2018-08-03T07:57:20.016Z,27.23
2018-08-03T07:58:20.021Z,27.26
2018-08-03T08:00:20.077Z,27.31
2018-08-03T08:01:20.107Z,27.38
2018-08-03T08:02:20.125Z,27.24
2018-08-03T08:03:20.203Z,27.26
2018-08-03T08:04:20.188Z,27.29
2018-08-03T08:05:20.223Z,27.29
2018-08-03T08:06:20.271Z,27.29
2018-08-03T08:07:20.289Z,27.26
2018-08-03T08:08:20.310Z,27.26
2018-08-03T08:09:20.333Z,27.26
2018-08-03T08:10:20.358Z,27.46
2018-08-03T08:11:20.381Z,27.41
2018-08-03T08:12:20.415Z,27.38
2018-08-03T08:13:20.444Z,27.46
2018-08-03T08:14:20.472Z,27.42
2018-08-03T08:15:20.541Z,27.42
2018-08-03T08:16:20.534Z,27.50
2018-08-03T08:17:20.550Z,27.43
2018-08-03T08:18:20.596Z,27.50
2018-08-03T08:19:20.613Z,27.50
2018-08-03T08:20:20.645Z,27.58
2018-08-03T08:21:20.670Z,27.54
2018-08-03T08:22:20.697Z,27.64
2018-08-03T08:23:20.721Z,27.62
2018-08-03T08:24:20.756Z,27.59
2018-08-03T08:25:20.790Z,27.59
2018-08-03T08:26:20.819Z,27.61
2018-08-03T08:27:20.840Z,27.62
2018-08-03T08:28:20.881Z,27.61
2018-08-03T08:29:20.898Z,27.66
2018-08-03T08:30:20.925Z,27.66
2018-08-03T08:31:21.008Z,27.69
2018-08-03T08:32:23.888Z,27.66
2018-08-03T08:33:21.012Z,27.67
2018-08-03T08:34:21.043Z,27.71
2018-08-03T08:35:21.069Z,27.71
2018-08-03T08:36:21.104Z,27.69
2018-08-03T08:37:21.138Z,27.85
2018-08-03T08:38:21.158Z,27.94
2018-08-03T08:39:21.188Z,27.86
2018-08-03T08:40:21.213Z,27.76
2018-08-03T08:41:21.241Z,27.71
2018-08-03T08:42:21.272Z,27.76
2018-08-03T08:43:21.299Z,27.80
2018-08-03T08:44:21.340Z,27.88
2018-08-03T08:45:21.351Z,27.88
2018-08-03T08:46:21.394Z,27.71
2018-08-03T08:47:21.430Z,27.74
2018-08-03T08:48:21.436Z,27.80
2018-08-03T08:49:21.471Z,27.84
2018-08-03T08:50:21.496Z,27.84
2018-08-03T08:51:21.529Z,27.84
2018-08-03T08:52:21.566Z,27.86
2018-08-03T08:53:21.622Z,27.84
2018-08-03T08:54:21.617Z,27.92
2018-08-03T08:55:21.668Z,28.01
2018-08-03T08:56:21.669Z,28.13
2018-08-03T08:57:21.700Z,28.06
2018-08-03T08:58:21.728Z,28.06
2018-08-03T08:59:21.756Z,28.03
2018-08-03T09:00:21.786Z,28.06
2018-08-03T09:01:21.816Z,28.06
2018-08-03T09:02:42.874Z,28.07
2018-08-03T09:03:21.875Z,28.09
2018-08-03T09:04:21.897Z,28.17
2018-08-03T09:05:21.932Z,28.19
2018-08-03T09:06:21.961Z,28.09
2018-08-03T09:07:22.053Z,28.21
2018-08-03T09:08:22.018Z,28.21
2018-08-03T09:09:22.067Z,28.29
2018-08-03T09:10:22.076Z,28.17
2018-08-03T09:11:22.103Z,28.19
2018-08-03T09:12:22.137Z,28.07
2018-08-03T09:13:22.164Z,28.22
2018-08-03T09:14:22.185Z,28.26
2018-08-03T09:15:22.221Z,28.29
2018-08-03T09:16:22.254Z,28.19
2018-08-03T09:17:22.286Z,28.17
2018-08-03T09:18:22.333Z,28.31
2018-08-03T09:20:22.369Z,28.32
2018-08-03T09:21:22.442Z,28.36
2018-08-03T09:22:22.472Z,28.38
2018-08-03T09:23:22.473Z,28.35
2018-08-03T09:24:22.484Z,28.35
2018-08-03T09:25:22.511Z,28.31
2018-08-03T09:26:22.532Z,28.33
2018-08-03T09:27:22.566Z,28.35
2018-08-03T09:28:22.628Z,28.56
2018-08-03T09:29:22.626Z,28.53
2018-08-03T09:30:22.657Z,28.40
2018-08-03T09:31:22.691Z,28.41
2018-08-03T09:32:22.717Z,28.41
2018-08-03T09:33:22.739Z,28.41
2018-08-03T09:34:22.771Z,28.44
2018-08-03T09:35:22.809Z,28.50
2018-08-03T09:36:22.854Z,28.51
2018-08-03T09:37:22.863Z,28.51
2018-08-03T09:38:22.893Z,28.51
2018-08-03T09:39:22.922Z,28.54
2018-08-03T09:40:22.946Z,28.53
2018-08-03T09:41:22.970Z,28.63
2018-08-03T09:42:23.008Z,28.62
2018-08-03T09:43:23.032Z,28.53
2018-08-03T09:44:23.064Z,28.58
2018-08-03T09:45:23.096Z,28.65
2018-08-03T09:46:23.124Z,28.69
2018-08-03T09:47:23.153Z,28.70
2018-08-03T09:48:23.196Z,28.87
2018-08-03T09:49:23.222Z,28.82
2018-08-03T09:50:23.253Z,28.88
2018-08-03T09:51:23.268Z,28.84
2018-08-03T09:52:23.300Z,28.87
2018-08-03T09:53:23.329Z,28.84
2018-08-03T09:54:23.456Z,28.78
2018-08-03T09:55:23.523Z,28.93
2018-08-03T09:56:23.416Z,28.91
2018-08-03T09:57:23.447Z,28.95
2018-08-03T09:58:23.469Z,28.91
2018-08-03T09:59:23.504Z,28.84
2018-08-03T10:00:23.535Z,28.97
2018-08-03T10:01:23.567Z,28.96
2018-08-03T10:02:23.592Z,29.06
2018-08-03T10:03:23.625Z,28.90
2018-08-03T10:04:23.653Z,29.07
2018-08-03T10:05:23.688Z,29.15
2018-08-03T10:07:23.785Z,28.96
2018-08-03T10:08:23.773Z,29.10
2018-08-03T10:09:23.805Z,29.10
2018-08-03T10:10:23.840Z,29.15
2018-08-03T10:11:23.864Z,29.26
2018-08-03T10:12:23.887Z,29.28
2018-08-03T10:13:23.917Z,29.31
2018-08-03T10:14:23.947Z,29.25
2018-08-03T10:15:23.974Z,29.04
2018-08-03T10:16:24.004Z,29.13
2018-08-03T10:17:24.039Z,29.11
2018-08-03T10:18:24.060Z,29.34
2018-08-03T10:19:24.096Z,29.35
2018-08-03T10:20:24.159Z,29.49
2018-08-03T10:21:24.152Z,29.35
2018-08-03T10:22:24.227Z,29.35
2018-08-03T10:23:24.211Z,29.47
2018-08-03T10:24:24.252Z,29.43
2018-08-03T10:25:24.273Z,29.41
2018-08-03T10:26:24.314Z,29.49
2018-08-03T10:27:24.358Z,29.33
2018-08-03T10:28:24.368Z,29.52
2018-08-03T10:29:24.402Z,29.68
2018-08-03T10:30:24.421Z,29.87
2018-08-03T10:31:24.446Z,29.72
2018-08-03T10:32:24.490Z,29.55
2018-08-03T10:33:24.539Z,29.44
2018-08-03T10:34:24.545Z,29.28
2018-08-03T10:35:24.600Z,29.35
2018-08-03T10:36:24.611Z,29.47
2018-08-03T10:37:24.634Z,29.52
2018-08-03T10:38:24.667Z,29.43
2018-08-03T10:39:24.685Z,29.38
2018-08-03T10:40:24.728Z,29.33
2018-08-03T10:41:24.751Z,29.53
2018-08-03T10:42:24.776Z,29.55
2018-08-03T10:43:24.809Z,29.65
2018-08-03T10:44:24.860Z,29.53
2018-08-03T10:45:24.870Z,29.62
2018-08-03T10:46:24.920Z,29.55
2018-08-03T10:47:24.933Z,29.60
2018-08-03T10:48:24.970Z,29.90
2018-08-03T10:49:25.005Z,30.09
2018-08-03T10:50:25.039Z,30.11
2018-08-03T10:51:25.097Z,30.05
2018-08-03T10:52:25.089Z,29.96
2018-08-03T10:53:25.105Z,29.82
2018-08-03T10:54:25.141Z,29.74
2018-08-03T10:55:25.261Z,29.72
2018-08-03T10:56:25.204Z,29.74
2018-08-03T10:57:25.233Z,29.87
2018-08-03T10:58:25.330Z,29.87
2018-08-03T10:59:25.294Z,29.79
2018-08-03T11:00:25.333Z,29.86
2018-08-03T11:01:25.401Z,30.11
2018-08-03T11:02:25.389Z,30.21
2018-08-03T11:03:25.415Z,29.97
2018-08-03T11:04:25.466Z,29.94
2018-08-03T11:05:25.476Z,29.96
2018-08-03T11:06:25.503Z,30.12
2018-08-03T11:07:25.540Z,30.00
2018-08-03T11:08:25.580Z,29.99
2018-08-03T11:09:25.596Z,30.05
2018-08-03T11:10:25.631Z,30.02
2018-08-03T11:12:25.684Z,30.19
2018-08-03T11:13:25.714Z,30.19
2018-08-03T11:14:25.748Z,30.19
2018-08-03T11:15:25.780Z,30.12
2018-08-03T11:16:25.808Z,30.11
2018-08-03T11:17:25.841Z,29.93
2018-08-03T11:18:25.869Z,30.08
2018-08-03T11:19:25.905Z,29.99
2018-08-03T11:20:25.925Z,30.08
2018-08-03T11:21:25.961Z,30.09
2018-08-03T11:22:25.990Z,30.31
2018-08-03T11:23:26.022Z,30.62
2018-08-03T11:24:26.050Z,30.57
2018-08-03T11:25:26.088Z,30.49
2018-08-03T11:26:26.109Z,30.56
2018-08-03T11:27:26.142Z,30.56
2018-08-03T11:28:26.172Z,30.49
2018-08-03T11:29:26.209Z,30.33
2018-08-03T11:30:26.228Z,30.45
2018-08-03T11:31:26.259Z,30.56
2018-08-03T11:32:26.306Z,30.57
2018-08-03T11:33:26.355Z,30.72
2018-08-03T11:34:26.360Z,30.59
2018-08-03T11:35:26.392Z,30.45
2018-08-03T11:36:26.419Z,30.43
2018-08-03T11:37:26.450Z,30.33
2018-08-03T11:38:26.493Z,30.36
2018-08-03T11:39:26.542Z,30.37
2018-08-03T11:40:26.540Z,30.71
2018-08-03T11:41:26.577Z,30.74
2018-08-03T11:42:26.595Z,31.17
2018-08-03T11:43:26.643Z,31.27
2018-08-03T11:44:26.667Z,31.21
2018-08-03T11:45:26.693Z,31.02
2018-08-03T11:46:26.725Z,30.87
2018-08-03T11:47:26.764Z,30.72
2018-08-03T11:48:26.796Z,30.78
2018-08-03T11:49:26.823Z,30.71
2018-08-03T11:50:26.842Z,30.99
2018-08-03T11:51:26.880Z,30.89
2018-08-03T11:52:26.908Z,31.01
2018-08-03T11:53:26.956Z,30.98
2018-08-03T11:54:26.976Z,30.93
2018-08-03T11:56:27.043Z,30.93
2018-08-03T11:57:27.067Z,30.90
2018-08-03T11:58:27.097Z,31.09
2018-08-03T11:59:27.138Z,31.21
2018-08-03T12:00:27.162Z,31.23
2018-08-03T12:01:27.195Z,31.15
2018-08-03T12:02:27.218Z,31.23
2018-08-03T12:03:27.258Z,31.26
2018-08-03T12:04:27.310Z,31.20
2018-08-03T12:05:27.311Z,31.13
2018-08-03T12:06:27.404Z,31.20
2018-08-03T12:07:27.384Z,31.53
2018-08-03T12:08:27.416Z,31.48
2018-08-03T12:09:27.439Z,31.40
2018-08-03T12:10:27.486Z,31.36
2018-08-03T12:11:27.512Z,31.26
2018-08-03T12:12:27.586Z,31.57
2018-08-03T12:13:27.577Z,31.72
2018-08-03T12:14:27.603Z,31.73
2018-08-03T12:15:27.636Z,31.60
2018-08-03T12:17:27.703Z,31.49
2018-08-03T12:18:27.739Z,31.33
2018-08-03T12:19:27.755Z,31.46
2018-08-03T12:20:27.799Z,31.60
2018-08-03T12:21:29.818Z,31.55
2018-08-03T12:22:27.852Z,31.55
2018-08-03T12:23:27.914Z,31.55
2018-08-03T12:24:27.922Z,31.53
2018-08-03T12:25:27.955Z,31.45
2018-08-03T12:26:27.985Z,31.33
2018-08-03T12:28:28.053Z,31.68
2018-08-03T12:29:28.080Z,31.65
2018-08-03T12:30:28.118Z,31.46
2018-08-03T12:31:28.188Z,31.60
2018-08-03T12:32:28.183Z,31.39
2018-08-03T12:33:28.206Z,31.58
2018-08-03T12:34:28.244Z,31.67
2018-08-03T12:35:28.352Z,31.88
2018-08-03T12:36:28.305Z,31.68
2018-08-03T12:37:28.340Z,31.61
2018-08-03T12:38:28.373Z,32.18
2018-08-03T12:39:28.404Z,32.03
2018-08-03T12:40:28.438Z,31.91
2018-08-03T12:41:28.464Z,31.76
2018-08-03T12:42:28.503Z,31.65
2018-08-03T12:43:28.532Z,31.75
2018-08-03T12:44:28.561Z,31.72
2018-08-03T12:45:33.994Z,31.75
2018-08-03T12:46:28.636Z,31.73
2018-08-03T12:47:28.655Z,31.72
2018-08-03T12:49:28.717Z,31.76
2018-08-03T12:50:28.810Z,31.85
2018-08-03T12:51:28.816Z,31.98
2018-08-03T12:52:28.844Z,32.00
2018-08-03T12:53:28.844Z,31.92
2018-08-03T12:54:28.878Z,31.70
2018-08-03T12:55:28.907Z,31.75
2018-08-03T12:56:28.948Z,31.67
2018-08-03T12:57:28.968Z,31.75
2018-08-03T12:58:29.009Z,31.62
2018-08-03T12:59:29.054Z,31.75
2018-08-03T13:00:29.070Z,31.82
2018-08-03T13:01:29.115Z,31.73
2018-08-03T13:02:29.187Z,31.77
2018-08-03T13:03:29.182Z,31.65
2018-08-03T13:04:29.241Z,31.54
2018-08-03T13:05:29.240Z,31.50
2018-08-03T13:06:29.267Z,31.62
2018-08-03T13:07:29.309Z,31.91
2018-08-03T13:08:29.362Z,31.68
2018-08-03T13:09:29.357Z,31.73
2018-08-03T13:10:29.405Z,31.68
2018-08-03T13:11:29.420Z,31.76
2018-08-03T13:12:29.444Z,31.76
2018-08-03T13:13:29.477Z,31.91
2018-08-03T13:14:29.517Z,31.85
2018-08-03T13:15:29.543Z,31.84
2018-08-03T13:16:29.578Z,31.80
2018-08-03T13:17:29.626Z,31.70